Time;durP1;ratioP1;P1;durP2;ratioP2;P2;SDS_P1;SDS_P2;PMS_P1;PMS_P2;Temp;Humidity;BMP_temperature;BMP_pressure;BME280_temperature;BME280_humidity;BME280_pressure;Samples;Min_cycle;Max_cycle;Signal;HPM_P1;HPM_P2
2023/07/13 00:00:29;;;;;;;0.10;0.10;;;21.10;99.90;;;;;;5025227;28;20217;-80
2023/07/13 00:02:54;;;;;;;0.10;0.10;;;21.00;99.90;;;;;;5025758;28;20269;-82
2023/07/13 00:05:21;;;;;;;0.10;0.10;;;21.00;99.90;;;;;;5024365;28;20626;-82
2023/07/13 00:07:48;;;;;;;0.10;0.10;;;20.80;99.90;;;;;;5028900;28;20198;-81
2023/07/13 00:10:13;;;;;;;0.10;0.10;;;20.80;99.90;;;;;;5037336;28;20232;-81
2023/07/13 00:12:39;;;;;;;0.10;0.10;;;20.80;99.90;;;;;;5027772;28;20206;-81
2023/07/13 00:15:09;;;;;;;0.10;0.10;;;20.70;99.90;;;;;;5030463;28;20285;-82
2023/07/13 00:17:35;;;;;;;0.10;0.10;;;20.70;99.90;;;;;;5030064;28;20562;-82
2023/07/13 00:20:01;;;;;;;0.10;0.10;;;20.70;99.90;;;;;;5027918;28;20231;-82
2023/07/13 00:22:26;;;;;;;0.10;0.10;;;20.60;99.90;;;;;;5028157;28;20305;-82
2023/07/13 00:24:55;;;;;;;0.10;0.10;;;20.60;99.90;;;;;;5031133;28;20201;-83
2023/07/13 00:27:21;;;;;;;0.10;0.10;;;20.60;99.90;;;;;;5026147;28;20190;-81
2023/07/13 00:29:47;;;;;;;0.10;0.10;;;20.60;99.90;;;;;;5030370;28;21224;-82
2023/07/13 00:32:12;;;;;;;0.10;0.10;;;20.70;99.90;;;;;;5027201;28;20233;-82
2023/07/13 00:34:38;;;;;;;0.10;0.10;;;20.70;99.90;;;;;;5026731;28;20190;-83
2023/07/13 00:37:06;;;;;;;0.10;0.10;;;20.60;99.90;;;;;;5028903;28;20563;-82
2023/07/13 00:39:33;;;;;;;0.10;0.10;;;20.60;99.90;;;;;;5027797;28;20221;-83
2023/07/13 00:41:59;;;;;;;0.10;0.10;;;20.70;99.90;;;;;;5026824;28;20214;-82
2023/07/13 00:44:25;;;;;;;0.10;0.10;;;20.70;99.90;;;;;;5026663;28;20193;-82
2023/07/13 00:46:50;;;;;;;0.10;0.10;;;20.60;99.90;;;;;;5026110;28;20191;-81
2023/07/13 00:49:21;;;;;;;0.10;0.10;;;20.40;99.90;;;;;;5026819;28;20214;-82
2023/07/13 00:52:03;;;;;;;0.10;0.10;;;20.30;99.90;;;;;;5026693;28;20291;-83
2023/07/13 00:54:40;;;;;;;0.10;0.10;;;20.30;99.90;;;;;;5025414;28;20187;-82
2023/07/13 00:57:09;;;;;;;0.10;0.10;;;20.30;99.90;;;;;;5023655;28;20268;-82
2023/07/13 00:59:38;;;;;;;0.10;0.10;;;20.20;99.90;;;;;;5025600;28;20764;-83
2023/07/13 01:02:04;;;;;;;0.10;0.10;;;20.30;99.90;;;;;;5023668;28;20294;-82
2023/07/13 01:04:30;;;;;;;0.10;0.10;;;20.30;99.90;;;;;;5027386;28;20217;-82
2023/07/13 01:06:56;;;;;;;0.10;0.10;;;20.20;99.90;;;;;;5025345;28;20199;-82
2023/07/13 01:09:22;;;;;;;0.10;0.10;;;20.10;99.90;;;;;;5023333;28;20266;-82
2023/07/13 01:11:48;;;;;;;0.10;0.10;;;20.00;99.90;;;;;;5023223;28;20693;-82
2023/07/13 01:14:14;;;;;;;0.10;0.10;;;19.90;99.90;;;;;;5024887;28;20204;-83
2023/07/13 01:16:43;;;;;;;0.10;0.10;;;19.80;99.90;;;;;;5026853;28;20192;-82
2023/07/13 01:19:19;;;;;;;0.10;0.10;;;19.90;99.90;;;;;;5022031;28;20214;-82
2023/07/13 01:21:50;;;;;;;0.10;0.10;;;19.70;99.90;;;;;;5023669;28;20217;-82
2023/07/13 01:24:16;;;;;;;0.10;0.10;;;19.60;99.90;;;;;;5025135;28;20277;-82
2023/07/13 01:26:42;;;;;;;0.10;0.10;;;19.60;99.90;;;;;;5022711;28;20186;-82
2023/07/13 01:29:07;;;;;;;0.10;0.10;;;19.80;99.90;;;;;;5025197;28;20210;-82
2023/07/13 01:31:33;;;;;;;0.10;0.10;;;19.80;99.90;;;;;;5023152;28;20190;-83
2023/07/13 01:33:58;;;;;;;0.10;0.10;;;19.90;99.90;;;;;;5024607;28;20202;-82
2023/07/13 01:36:24;;;;;;;0.10;0.10;;;19.90;99.90;;;;;;5024111;28;20191;-83
2023/07/13 01:38:50;;;;;;;0.10;0.10;;;19.80;99.90;;;;;;5025031;28;20237;-83
2023/07/13 01:41:15;;;;;;;0.10;0.10;;;19.90;99.90;;;;;;5024466;28;20261;-82
2023/07/13 01:43:41;;;;;;;0.10;0.10;;;19.90;99.90;;;;;;5024256;28;20648;-83
2023/07/13 01:46:06;;;;;;;0.10;0.10;;;19.80;99.90;;;;;;5024710;28;20661;-83
2023/07/13 01:48:32;;;;;;;0.10;0.10;;;19.90;99.90;;;;;;5023499;28;20578;-83
2023/07/13 01:50:57;;;;;;;0.10;0.10;;;19.90;99.90;;;;;;5023191;28;20190;-82
2023/07/13 01:53:23;;;;;;;0.10;0.10;;;19.80;99.90;;;;;;5025702;28;20190;-83
2023/07/13 01:55:49;;;;;;;0.10;0.10;;;19.90;99.90;;;;;;5024615;28;20191;-83
2023/07/13 01:58:14;;;;;;;0.10;0.10;;;19.90;99.90;;;;;;5023136;28;20815;-83
2023/07/13 02:00:40;;;;;;;0.10;0.10;;;19.80;99.90;;;;;;5025265;28;20193;-83
2023/07/13 02:03:05;;;;;;;0.10;0.10;;;19.80;99.90;;;;;;5021575;28;20216;-83
2023/07/13 02:05:31;;;;;;;0.10;0.10;;;19.80;99.90;;;;;;5026310;28;20194;-84
2023/07/13 02:07:57;;;;;;;0.10;0.10;;;19.70;99.90;;;;;;5036568;28;20206;-83
2023/07/13 02:10:23;;;;;;;0.10;0.10;;;19.60;99.90;;;;;;5038582;28;20179;-82
2023/07/13 02:12:50;;;;;;;0.10;0.10;;;19.70;99.90;;;;;;5039938;28;20202;-84
2023/07/13 02:15:16;;;;;;;0.10;0.10;;;19.80;99.90;;;;;;5039913;28;20193;-83
2023/07/13 02:17:41;;;;;;;0.10;0.10;;;19.80;99.90;;;;;;5030943;28;20189;-82
2023/07/13 02:20:09;;;;;;;0.10;0.10;;;19.70;99.90;;;;;;5027179;28;20199;-82
2023/07/13 02:22:34;;;;;;;0.10;0.10;;;19.70;99.90;;;;;;5031020;28;20230;-82
2023/07/13 02:25:00;;;;;;;0.10;0.10;;;19.60;99.90;;;;;;5030629;28;20186;-83
2023/07/13 02:27:26;;;;;;;0.10;0.10;;;19.50;99.90;;;;;;5025799;28;20195;-82
2023/07/13 02:29:51;;;;;;;0.10;0.10;;;19.50;99.90;;;;;;5025546;28;20206;-83
2023/07/13 02:32:18;;;;;;;0.10;0.10;;;19.40;99.90;;;;;;5024180;28;20190;-83
2023/07/13 02:34:44;;;;;;;0.10;0.10;;;19.40;99.90;;;;;;5027464;28;20197;-83
2023/07/13 02:37:10;;;;;;;0.10;0.10;;;19.30;99.90;;;;;;5030081;28;20210;-84
2023/07/13 02:39:36;;;;;;;0.10;0.10;;;19.20;99.90;;;;;;5028054;28;20210;-82
2023/07/13 02:42:01;;;;;;;0.10;0.10;;;19.10;99.90;;;;;;5025589;28;20281;-83
2023/07/13 02:44:27;;;;;;;0.10;0.10;;;19.10;99.90;;;;;;5028012;28;20187;-83
2023/07/13 02:46:53;;;;;;;0.10;0.10;;;19.10;99.90;;;;;;5029036;28;20191;-83
2023/07/13 02:49:18;;;;;;;0.10;0.10;;;19.10;99.90;;;;;;5028390;28;20229;-84
2023/07/13 02:51:44;;;;;;;0.10;0.10;;;19.00;99.90;;;;;;5026349;28;20186;-82
2023/07/13 02:54:11;;;;;;;0.10;0.10;;;19.00;99.90;;;;;;5026069;28;20232;-84
2023/07/13 02:56:38;;;;;;;0.10;0.10;;;18.90;99.90;;;;;;5026333;28;20477;-82
2023/07/13 02:59:04;;;;;;;0.10;0.10;;;18.90;99.90;;;;;;5025821;28;20210;-83
2023/07/13 03:01:30;;;;;;;0.10;0.10;;;18.90;99.90;;;;;;5022700;28;20201;-82
2023/07/13 03:03:56;;;;;;;0.10;0.10;;;18.90;99.90;;;;;;5028104;28;20187;-83
2023/07/13 03:06:22;;;;;;;0.10;0.10;;;18.90;99.90;;;;;;5026289;28;20285;-82
2023/07/13 03:08:51;;;;;;;0.10;0.10;;;18.70;99.90;;;;;;5026544;28;20307;-82
2023/07/13 03:11:19;;;;;;;0.10;0.10;;;18.80;99.90;;;;;;5023621;28;20191;-83
2023/07/13 03:13:45;;;;;;;0.10;0.10;;;18.80;99.90;;;;;;5026021;28;20644;-83
2023/07/13 03:16:11;;;;;;;0.10;0.10;;;18.80;99.90;;;;;;5026682;28;20186;-83
2023/07/13 03:18:38;;;;;;;0.10;0.10;;;18.80;99.90;;;;;;5026216;28;20738;-83
2023/07/13 03:21:04;;;;;;;0.10;0.10;;;18.80;99.90;;;;;;5024081;28;20241;-82
2023/07/13 03:23:30;;;;;;;0.10;0.10;;;18.80;99.90;;;;;;5026995;28;20225;-83
2023/07/13 03:26:09;;;;;;;0.10;0.10;;;18.80;99.90;;;;;;5022970;28;20194;-84
2023/07/13 03:28:35;;;;;;;0.10;0.10;;;18.80;99.90;;;;;;5026086;28;20230;-84
2023/07/13 03:31:03;;;;;;;0.10;0.10;;;18.80;99.90;;;;;;5023155;28;20185;-83
2023/07/13 03:33:29;;;;;;;0.10;0.10;;;18.80;99.90;;;;;;5025213;28;20190;-83
2023/07/13 03:35:55;;;;;;;0.10;0.10;;;18.80;99.90;;;;;;5024481;28;20286;-83
2023/07/13 03:38:21;;;;;;;0.10;0.10;;;18.80;99.90;;;;;;5024825;28;20316;-82
2023/07/13 03:40:46;;;;;;;0.10;0.10;;;18.80;99.90;;;;;;5023853;28;21022;-83
2023/07/13 03:43:12;;;;;;;0.10;0.10;;;18.80;99.90;;;;;;5029075;28;20236;-83
2023/07/13 03:45:38;;;;;;;0.10;0.10;;;18.80;99.90;;;;;;5028705;28;20815;-82
2023/07/13 03:48:04;;;;;;;0.10;0.10;;;18.80;99.90;;;;;;5022968;28;20573;-82
2023/07/13 03:50:30;;;;;;;0.10;0.10;;;18.80;99.90;;;;;;5029198;28;20233;-82
2023/07/13 03:52:57;;;;;;;0.10;0.10;;;18.80;99.90;;;;;;5027733;28;20933;-83
2023/07/13 03:55:23;;;;;;;0.10;0.10;;;19.40;99.90;;;;;;5024942;28;20326;-84
2023/07/13 03:57:57;;;;;;;0.10;0.10;;;20.20;99.90;;;;;;5027156;28;20296;-84
2023/07/13 04:00:23;;;;;;;0.10;0.10;;;21.10;99.90;;;;;;5030061;28;20568;-83
2023/07/13 04:02:49;;;;;;;0.10;0.10;;;21.70;99.90;;;;;;5028229;28;20221;-83
2023/07/13 04:05:15;;;;;;;0.10;0.10;;;22.30;99.90;;;;;;5027960;28;20201;-82
2023/07/13 04:07:41;;;;;;;0.10;0.10;;;22.70;99.90;;;;;;5027738;28;20212;-82
2023/07/13 04:10:07;;;;;;;0.10;0.10;;;23.40;99.90;;;;;;5026590;28;20266;-83
2023/07/13 04:12:33;;;;;;;0.10;0.10;;;23.90;99.90;;;;;;5029243;28;20193;-83
2023/07/13 04:14:58;;;;;;;0.10;0.10;;;24.10;99.90;;;;;;5028903;28;20187;-83
2023/07/13 04:17:24;;;;;;;0.10;0.10;;;24.60;99.90;;;;;;5027352;28;20187;-84
2023/07/13 04:19:49;;;;;;;0.10;0.10;;;25.00;99.90;;;;;;5028496;28;20214;-82
2023/07/13 04:22:15;;;;;;;0.10;0.10;;;25.30;99.90;;;;;;5020887;28;21302;-83
2023/07/13 04:24:41;;;;;;;0.10;0.10;;;25.50;99.90;;;;;;5021742;28;20240;-83
2023/07/13 04:27:06;;;;;;;0.10;0.10;;;25.20;99.90;;;;;;5022873;28;20186;-82
2023/07/13 04:29:32;;;;;;;0.10;0.10;;;24.60;99.90;;;;;;5025368;28;20203;-84
2023/07/13 04:31:58;;;;;;;0.10;0.10;;;24.00;99.90;;;;;;5023853;28;20221;-82
2023/07/13 04:34:24;;;;;;;0.10;0.10;;;23.20;99.90;;;;;;5026977;28;20252;-82
2023/07/13 04:36:50;;;;;;;0.10;0.10;;;22.70;99.90;;;;;;5025167;28;20249;-83
2023/07/13 04:39:16;;;;;;;0.10;0.10;;;22.30;99.90;;;;;;5023018;28;20660;-83
2023/07/13 04:41:41;;;;;;;0.10;0.10;;;22.10;99.90;;;;;;5034185;28;20211;-84
2023/07/13 04:44:07;;;;;;;0.10;0.10;;;21.80;99.90;;;;;;5039890;28;20228;-83
2023/07/13 04:46:32;;;;;;;0.10;0.10;;;21.70;99.90;;;;;;5041920;28;20179;-84
2023/07/13 04:48:58;;;;;;;0.10;0.10;;;21.40;99.90;;;;;;5036280;28;20300;-83
2023/07/13 04:51:24;;;;;;;0.10;0.10;;;21.30;99.90;;;;;;5030160;28;20250;-84
2023/07/13 04:53:50;;;;;;;0.10;0.10;;;21.10;99.90;;;;;;5028555;28;20178;-82
2023/07/13 04:56:15;;;;;;;0.10;0.10;;;20.90;99.90;;;;;;5043984;28;20187;-82
2023/07/13 04:58:41;;;;;;;0.10;0.10;;;20.70;99.90;;;;;;5031894;28;20202;-82
2023/07/13 05:01:08;;;;;;;0.10;0.10;;;20.50;99.90;;;;;;5032415;28;20190;-83
2023/07/13 05:03:34;;;;;;;0.10;0.10;;;20.30;99.90;;;;;;5028758;28;20210;-82
2023/07/13 05:06:03;;;;;;;0.10;0.10;;;20.10;99.90;;;;;;5029067;28;20225;-83
2023/07/13 05:08:29;;;;;;;0.10;0.10;;;20.00;99.90;;;;;;5028721;28;20295;-83
2023/07/13 05:10:55;;;;;;;0.10;0.10;;;20.00;99.90;;;;;;5025270;28;20930;-85
2023/07/13 05:13:21;;;;;;;0.10;0.10;;;20.00;99.90;;;;;;5027102;28;20201;-83
2023/07/13 05:15:55;;;;;;;0.10;0.10;;;20.00;99.90;;;;;;5025575;28;20234;-83
2023/07/13 05:18:21;;;;;;;0.10;0.10;;;20.10;99.90;;;;;;5026105;28;20212;-83
2023/07/13 05:20:46;;;;;;;0.10;0.10;;;20.10;99.90;;;;;;5021555;28;20194;-84
2023/07/13 05:23:12;;;;;;;0.10;0.10;;;20.00;99.90;;;;;;5025989;28;20219;-84
2023/07/13 05:25:37;;;;;;;0.10;0.10;;;20.10;99.90;;;;;;5025022;28;20187;-83
2023/07/13 05:28:03;;;;;;;0.10;0.10;;;20.10;99.90;;;;;;5027045;28;20224;-83
2023/07/13 05:30:28;;;;;;;0.10;0.10;;;20.10;99.90;;;;;;5024148;28;20691;-82
2023/07/13 05:32:54;;;;;;;0.10;0.10;;;20.20;99.90;;;;;;5025616;28;20190;-83
2023/07/13 05:35:20;;;;;;;0.10;0.10;;;20.20;99.90;;;;;;5023172;28;20190;-83
2023/07/13 05:37:45;;;;;;;0.10;0.10;;;20.20;99.90;;;;;;5025582;28;20195;-84
2023/07/13 05:40:11;;;;;;;0.10;0.10;;;20.10;99.90;;;;;;5024424;28;20218;-83
2023/07/13 05:42:36;;;;;;;0.10;0.10;;;20.10;99.90;;;;;;5022510;28;20241;-83
2023/07/13 05:45:02;;;;;;;0.10;0.10;;;20.10;99.90;;;;;;5026528;28;20712;-83
2023/07/13 05:47:28;;;;;;;0.10;0.10;;;20.30;99.90;;;;;;5024116;28;20837;-83
2023/07/13 05:49:53;;;;;;;0.10;0.10;;;20.20;99.90;;;;;;5020823;28;20210;-83
2023/07/13 05:52:19;;;;;;;0.10;0.10;;;20.20;99.90;;;;;;5021361;28;20186;-83
2023/07/13 05:54:44;;;;;;;0.10;0.10;;;20.30;99.90;;;;;;5025203;28;20182;-83
2023/07/13 05:57:10;;;;;;;0.10;0.10;;;20.40;99.90;;;;;;5025764;28;20194;-83
2023/07/13 05:59:35;;;;;;;0.10;0.10;;;20.40;99.90;;;;;;5025249;28;20210;-83
2023/07/13 06:02:01;;;;;;;0.10;0.10;;;20.40;99.90;;;;;;5027575;28;20359;-83
2023/07/13 06:04:27;;;;;;;0.10;0.10;;;20.50;99.90;;;;;;5028025;28;20186;-83
2023/07/13 06:06:53;;;;;;;0.10;0.10;;;20.50;99.90;;;;;;5025050;28;21065;-83
2023/07/13 06:09:18;;;;;;;0.10;0.10;;;20.60;99.90;;;;;;5026817;28;20285;-83
2023/07/13 06:11:44;;;;;;;0.10;0.10;;;20.70;99.90;;;;;;5022964;28;20195;-83
2023/07/13 06:14:10;;;;;;;0.10;0.10;;;20.80;99.90;;;;;;5020600;28;20193;-83
2023/07/13 06:16:35;;;;;;;0.10;0.10;;;20.80;99.90;;;;;;5025265;28;20656;-83
2023/07/13 06:19:01;;;;;;;0.10;0.10;;;21.00;99.90;;;;;;5025903;28;20543;-83
2023/07/13 06:21:26;;;;;;;0.10;0.10;;;20.90;99.90;;;;;;5025422;28;20210;-83
2023/07/13 06:23:53;;;;;;;0.10;0.10;;;21.00;99.90;;;;;;5024601;28;20297;-84
2023/07/13 06:26:20;;;;;;;0.10;0.10;;;21.10;99.90;;;;;;5024068;28;20191;-83
2023/07/13 06:28:45;;;;;;;0.10;0.10;;;21.20;99.90;;;;;;5026155;28;20298;-82
2023/07/13 06:31:13;;;;;;;0.10;0.10;;;21.30;99.90;;;;;;5025242;28;20277;-83
2023/07/13 06:33:38;;;;;;;0.10;0.10;;;21.40;99.90;;;;;;5019437;28;20196;-84
2023/07/13 06:36:05;;;;;;;0.10;0.10;;;21.40;99.90;;;;;;5023465;28;20194;-83
2023/07/13 06:38:31;;;;;;;0.10;0.10;;;21.40;99.90;;;;;;5024036;28;20210;-83
2023/07/13 06:40:57;;;;;;;0.10;0.10;;;21.50;99.90;;;;;;5027043;28;20297;-83
2023/07/13 06:43:24;;;;;;;0.10;0.10;;;21.50;99.90;;;;;;5026671;28;20297;-83
2023/07/13 06:45:50;;;;;;;0.10;0.10;;;21.50;99.90;;;;;;5024226;28;20194;-83
2023/07/13 06:48:17;;;;;;;0.10;0.10;;;21.70;99.90;;;;;;5021700;28;20199;-83
2023/07/13 06:50:43;;;;;;;0.10;0.10;;;21.80;99.90;;;;;;5022785;28;20183;-83
2023/07/13 06:53:10;;;;;;;0.10;0.10;;;21.90;99.90;;;;;;5029063;28;20289;-82
2023/07/13 06:55:36;;;;;;;0.10;0.10;;;22.00;99.90;;;;;;5026371;28;20213;-83
2023/07/13 06:58:01;;;;;;;0.10;0.10;;;22.20;99.90;;;;;;5028455;28;20203;-83
2023/07/13 07:00:27;;;;;;;0.10;0.10;;;22.40;99.90;;;;;;5027997;28;20201;-83
2023/07/13 07:02:52;;;;;;;0.10;0.10;;;22.40;99.90;;;;;;5027014;28;20234;-82
2023/07/13 07:05:21;;;;;;;0.10;0.10;;;22.50;99.90;;;;;;5025160;28;21161;-83
2023/07/13 07:07:47;;;;;;;0.10;0.10;;;22.70;99.90;;;;;;5022766;28;20563;-82
2023/07/13 07:10:12;;;;;;;0.10;0.10;;;22.70;99.90;;;;;;5026287;28;20186;-83
2023/07/13 07:12:38;;;;;;;0.10;0.10;;;22.80;99.90;;;;;;5020592;28;20244;-82
2023/07/13 07:15:04;;;;;;;0.10;0.10;;;22.80;99.90;;;;;;5022605;28;20190;-83
2023/07/13 07:17:29;;;;;;;0.10;0.10;;;22.90;99.90;;;;;;5027836;28;20201;-87
2023/07/13 07:19:55;;;;;;;0.10;0.10;;;23.10;99.90;;;;;;5025985;28;20210;-82
2023/07/13 07:22:21;;;;;;;0.10;0.10;;;23.00;99.90;;;;;;5030288;28;21732;-83
2023/07/13 07:24:46;;;;;;;0.10;0.10;;;23.10;99.90;;;;;;5033809;28;20190;-83
2023/07/13 07:27:12;;;;;;;0.10;0.10;;;23.10;99.90;;;;;;5017493;28;20199;-83
2023/07/13 07:29:37;;;;;;;0.10;0.10;;;23.30;99.90;;;;;;5028847;28;20301;-83
2023/07/13 07:32:03;;;;;;;0.10;0.10;;;23.30;99.90;;;;;;5023332;28;20197;-83
2023/07/13 07:34:30;;;;;;;0.10;0.10;;;23.50;99.90;;;;;;5025091;28;20194;-83
2023/07/13 07:36:59;;;;;;;0.10;0.10;;;23.50;99.90;;;;;;5028670;28;20190;-83
2023/07/13 07:39:25;;;;;;;0.10;0.10;;;23.60;99.90;;;;;;5024404;28;20241;-83
2023/07/13 07:41:50;;;;;;;0.10;0.10;;;23.60;99.90;;;;;;5027099;28;20242;-83
2023/07/13 07:44:16;;;;;;;0.10;0.10;;;23.70;99.90;;;;;;5024147;28;20579;-83
2023/07/13 07:46:42;;;;;;;0.10;0.10;;;23.80;99.90;;;;;;5026879;28;20179;-84
2023/07/13 07:49:07;;;;;;;0.10;0.10;;;24.00;99.90;;;;;;5024611;28;20230;-84
2023/07/13 07:51:33;;;;;;;0.10;0.10;;;24.10;99.90;;;;;;5026016;28;20183;-83
2023/07/13 07:53:59;;;;;;;0.10;0.10;;;24.10;99.90;;;;;;5027294;28;20187;-83
2023/07/13 07:56:25;;;;;;;0.10;0.10;;;24.40;99.90;;;;;;5023856;28;20179;-83
2023/07/13 07:58:51;;;;;;;0.10;0.10;;;24.60;99.90;;;;;;5026512;28;20294;-83
2023/07/13 08:01:16;;;;;;;0.10;0.10;;;24.90;99.90;;;;;;5026025;28;20190;-83
2023/07/13 08:03:42;;;;;;;0.10;0.10;;;24.90;99.90;;;;;;5027232;28;20194;-83
2023/07/13 08:06:07;;;;;;;0.10;0.10;;;24.90;99.90;;;;;;5024167;28;20687;-83
2023/07/13 08:08:34;;;;;;;0.10;0.10;;;24.90;99.90;;;;;;5025926;28;21141;-83
2023/07/13 08:11:03;;;;;;;0.10;0.10;;;25.00;99.90;;;;;;5023699;28;20182;-83
2023/07/13 08:13:29;;;;;;;0.10;0.10;;;25.00;99.90;;;;;;5023851;28;20179;-83
2023/07/13 08:15:54;;;;;;;0.10;0.10;;;25.10;99.90;;;;;;5026237;28;20208;-83
2023/07/13 08:18:20;;;;;;;0.10;0.10;;;24.90;99.90;;;;;;5024903;28;20198;-83
2023/07/13 08:20:46;;;;;;;0.10;0.10;;;25.10;99.90;;;;;;5022326;28;20191;-83
2023/07/13 08:23:11;;;;;;;0.10;0.10;;;24.90;99.90;;;;;;5025691;28;20256;-83
2023/07/13 08:25:37;;;;;;;0.10;0.10;;;25.10;99.90;;;;;;5026355;28;20179;-83
2023/07/13 08:28:03;;;;;;;0.10;0.10;;;25.20;99.90;;;;;;5022015;28;20287;-83
2023/07/13 08:30:29;;;;;;;0.10;0.10;;;25.20;99.90;;;;;;5024534;28;20183;-83
2023/07/13 08:32:55;;;;;;;0.10;0.10;;;25.20;99.90;;;;;;5023558;28;20203;-83
2023/07/13 08:35:21;;;;;;;0.10;0.10;;;25.00;99.90;;;;;;5021643;28;20797;-83
2023/07/13 08:37:46;;;;;;;0.10;0.10;;;25.00;99.90;;;;;;5023188;28;20215;-84
2023/07/13 08:40:13;;;;;;;0.20;0.20;;;24.90;99.90;;;;;;5022008;28;20631;-83
2023/07/13 08:43:02;;;;;;;0.10;0.10;;;24.90;99.90;;;;;;5021446;28;20696;-83
2023/07/13 08:45:44;;;;;;;0.10;0.10;;;24.80;99.90;;;;;;5012294;28;20548;-82
2023/07/13 08:48:19;;;;;;;0.10;0.10;;;24.90;99.90;;;;;;5020755;28;20241;-82
2023/07/13 08:51:33;;;;;;;0.10;0.10;;;25.10;99.90;;;;;;5019365;28;20252;-82
2023/07/13 08:54:04;;;;;;;0.10;0.10;;;25.30;99.90;;;;;;5019221;28;20262;-82
2023/07/13 08:56:31;;;;;;;0.10;0.10;;;25.20;99.90;;;;;;5024307;28;20186;-83
2023/07/13 08:59:11;;;;;;;0.10;0.10;;;25.20;99.90;;;;;;5023875;28;20586;-83
2023/07/13 09:02:12;;;;;;;0.10;0.10;;;25.20;99.90;;;;;;5014284;28;20195;-83
2023/07/13 09:04:45;;;;;;;0.10;0.10;;;25.80;99.90;;;;;;5020206;28;20256;-84
2023/07/13 09:07:30;;;;;;;0.10;0.10;;;25.90;99.90;;;;;;5025370;28;20643;-84
2023/07/13 09:10:05;;;;;;;0.10;0.10;;;26.20;99.90;;;;;;5029713;28;20213;-83
2023/07/13 09:12:37;;;;;;;0.10;0.10;;;26.40;99.90;;;;;;5028755;28;20220;-83
2023/07/13 09:15:04;;;;;;;0.10;0.10;;;26.50;99.90;;;;;;5023407;28;20258;-83
2023/07/13 09:17:40;;;;;;;0.10;0.10;;;26.30;99.90;;;;;;5029204;28;20277;-83
2023/07/13 09:20:19;;;;;;;0.10;0.10;;;26.50;99.90;;;;;;5028563;28;20186;-83
2023/07/13 09:22:46;;;;;;;0.10;0.10;;;26.30;99.90;;;;;;5028604;28;20249;-83
2023/07/13 09:25:32;;;;;;;0.10;0.10;;;26.50;99.90;;;;;;5025549;28;20182;-83
2023/07/13 09:28:15;;;;;;;0.10;0.10;;;26.20;99.90;;;;;;5025067;28;20221;-83
2023/07/13 09:30:54;;;;;;;0.10;0.10;;;26.30;99.90;;;;;;5024424;28;20602;-84
2023/07/13 09:33:20;;;;;;;0.10;0.10;;;26.20;99.90;;;;;;5020174;28;20194;-83
2023/07/13 09:35:46;;;;;;;0.10;0.10;;;26.20;99.90;;;;;;5023513;28;20191;-83
2023/07/13 09:38:17;;;;;;;0.10;0.10;;;26.00;99.90;;;;;;5025578;28;20331;-83
2023/07/13 09:40:48;;;;;;;0.10;0.10;;;26.10;99.90;;;;;;5023713;28;21235;-83
2023/07/13 09:43:15;;;;;;;0.10;0.10;;;26.30;99.90;;;;;;5025749;28;20214;-84
2023/07/13 09:45:46;;;;;;;0.10;0.10;;;26.60;99.90;;;;;;5021429;28;20190;-83
2023/07/13 09:48:14;;;;;;;0.10;0.10;;;27.00;99.90;;;;;;5020761;28;21320;-83
2023/07/13 09:50:41;;;;;;;0.10;0.10;;;26.90;99.90;;;;;;5022533;28;20187;-83
2023/07/13 09:53:18;;;;;;;0.10;0.10;;;26.90;99.90;;;;;;5024710;28;20190;-83
2023/07/13 09:55:47;;;;;;;0.10;0.10;;;26.90;99.90;;;;;;5021434;28;20305;-83
2023/07/13 09:58:24;;;;;;;0.10;0.10;;;26.80;99.90;;;;;;5019471;28;20307;-83
2023/07/13 10:01:02;;;;;;;0.10;0.10;;;26.40;99.90;;;;;;5018139;28;20281;-83
2023/07/13 10:03:37;;;;;;;0.10;0.10;;;26.60;99.90;;;;;;5018245;28;20225;-83
2023/07/13 10:06:15;;;;;;;0.10;0.10;;;26.60;99.90;;;;;;5021645;28;20194;-83
2023/07/13 10:08:41;;;;;;;0.10;0.10;;;26.90;99.90;;;;;;5022228;28;20216;-83
2023/07/13 10:11:20;;;;;;;0.20;0.20;;;26.70;99.90;;;;;;5019743;28;20190;-83
2023/07/13 10:13:57;;;;;;;0.10;0.10;;;26.60;99.90;;;;;;5026581;28;20194;-83
2023/07/13 10:16:32;;;;;;;0.10;0.10;;;26.40;99.90;;;;;;5029147;28;20525;-83
2023/07/13 10:19:01;;;;;;;0.10;0.10;;;26.20;99.90;;;;;;5028196;28;20213;-83
2023/07/13 10:21:33;;;;;;;0.10;0.10;;;26.20;99.90;;;;;;5032006;28;21283;-83
2023/07/13 10:24:23;;;;;;;0.10;0.10;;;26.20;99.90;;;;;;5023042;28;20194;-82
2023/07/13 10:27:05;;;;;;;0.10;0.10;;;26.10;99.90;;;;;;5028646;28;20187;-82
2023/07/13 10:29:37;;;;;;;0.10;0.10;;;26.20;99.90;;;;;;5026106;28;20285;-83
2023/07/13 10:32:09;;;;;;;0.10;0.10;;;26.50;99.90;;;;;;5017466;28;20194;-83
2023/07/13 10:34:36;;;;;;;0.10;0.10;;;26.60;99.90;;;;;;5022714;28;20190;-82
2023/07/13 10:37:01;;;;;;;0.10;0.10;;;26.50;99.90;;;;;;5030051;28;20190;-83
2023/07/13 10:39:28;;;;;;;0.10;0.10;;;26.70;99.90;;;;;;5024904;28;20280;-82
2023/07/13 10:42:01;;;;;;;0.10;0.10;;;27.00;99.90;;;;;;5020573;28;20214;-83
2023/07/13 10:44:29;;;;;;;0.10;0.10;;;27.00;99.90;;;;;;5021785;28;20183;-83
2023/07/13 10:46:58;;;;;;;0.10;0.10;;;27.20;99.90;;;;;;5023589;28;20200;-84
2023/07/13 10:49:26;;;;;;;0.10;0.10;;;27.40;99.90;;;;;;5018453;28;20236;-83
2023/07/13 10:51:52;;;;;;;0.10;0.10;;;27.60;99.90;;;;;;5020182;28;20281;-83
2023/07/13 10:54:27;;;;;;;0.10;0.10;;;27.60;99.90;;;;;;5022445;28;20201;-83
2023/07/13 10:57:18;;;;;;;0.10;0.10;;;27.50;99.90;;;;;;5022735;28;20727;-84
2023/07/13 11:00:08;;;;;;;0.10;0.10;;;27.50;99.90;;;;;;5016177;28;20202;-84
2023/07/13 11:02:34;;;;;;;0.10;0.10;;;27.80;99.90;;;;;;5022386;28;21064;-83
2023/07/13 11:05:30;;;;;;;0.10;0.10;;;28.10;99.90;;;;;;5019572;28;20258;-84
2023/07/13 11:08:04;;;;;;;0.10;0.10;;;28.40;99.90;;;;;;5018139;28;20186;-84
2023/07/13 11:10:50;;;;;;;0.10;0.10;;;28.70;99.90;;;;;;5017805;28;20197;-84
2023/07/13 11:13:34;;;;;;;0.10;0.10;;;28.40;99.90;;;;;;5025693;28;20186;-84
2023/07/13 11:16:00;;;;;;;0.10;0.10;;;28.30;99.90;;;;;;5024443;28;20281;-84
2023/07/13 11:18:25;;;;;;;0.10;0.10;;;28.50;99.90;;;;;;5026614;28;20253;-84
2023/07/13 11:20:51;;;;;;;0.10;0.10;;;28.60;99.90;;;;;;5019517;28;20197;-84
2023/07/13 11:23:30;;;;;;;0.10;0.10;;;28.30;99.90;;;;;;5021383;28;21078;-84
2023/07/13 11:25:55;;;;;;;0.10;0.10;;;28.00;99.90;;;;;;5024105;28;20187;-83
2023/07/13 11:28:27;;;;;;;0.10;0.10;;;27.90;99.90;;;;;;5027879;28;20206;-83
2023/07/13 11:30:52;;;;;;;0.10;0.10;;;28.00;99.90;;;;;;5023772;28;20605;-83
2023/07/13 11:33:30;;;;;;;0.10;0.10;;;27.90;99.90;;;;;;5022478;28;20281;-83
2023/07/13 11:36:21;;;;;;;0.10;0.10;;;28.10;99.90;;;;;;5016379;28;20224;-83
2023/07/13 11:39:04;;;;;;;0.10;0.10;;;28.20;99.90;;;;;;5022886;28;20205;-83
2023/07/13 11:41:38;;;;;;;0.10;0.10;;;27.80;99.90;;;;;;5029202;28;20211;-84
2023/07/13 11:44:13;;;;;;;0.10;0.10;;;27.60;99.90;;;;;;5027197;28;20178;-83
2023/07/13 11:46:38;;;;;;;0.10;0.10;;;27.80;99.90;;;;;;5028497;28;20190;-84
2023/07/13 11:49:07;;;;;;;0.40;0.40;;;28.10;99.90;;;;;;5026366;28;20242;-84
2023/07/13 11:51:36;;;;;;;0.10;0.10;;;28.10;99.90;;;;;;5027652;28;20179;-83
2023/07/13 11:54:26;;;;;;;0.10;0.10;;;28.20;99.90;;;;;;5027189;28;20212;-83
2023/07/13 11:56:54;;;;;;;0.10;0.10;;;28.20;99.90;;;;;;5023811;28;20599;-83
2023/07/13 11:59:21;;;;;;;0.10;0.10;;;28.40;99.90;;;;;;5028529;28;20723;-83
2023/07/13 12:01:52;;;;;;;0.10;0.10;;;28.50;99.90;;;;;;5023316;28;20221;-83
2023/07/13 12:04:28;;;;;;;0.10;0.10;;;28.40;99.90;;;;;;5028037;28;20188;-83
2023/07/13 12:07:06;;;;;;;0.10;0.10;;;28.50;99.90;;;;;;5039654;28;20205;-84
2023/07/13 12:09:36;;;;;;;0.10;0.10;;;28.20;99.90;;;;;;5041450;28;20252;-82
2023/07/13 12:12:02;;;;;;;0.10;0.10;;;27.80;99.90;;;;;;5030144;28;20178;-83
2023/07/13 12:14:27;;;;;;;0.10;0.10;;;27.60;99.90;;;;;;5029535;28;20187;-83
2023/07/13 12:16:54;;;;;;;0.10;0.10;;;27.60;99.90;;;;;;5030474;28;20190;-84
2023/07/13 12:19:28;;;;;;;0.10;0.10;;;27.80;99.90;;;;;;5029807;28;20213;-82
2023/07/13 12:21:55;;;;;;;0.10;0.10;;;28.10;99.90;;;;;;5027507;28;20988;-83
2023/07/13 12:24:22;;;;;;;0.10;0.10;;;28.20;99.90;;;;;;5029627;28;20233;-82
2023/07/13 12:26:54;;;;;;;0.10;0.10;;;27.90;99.90;;;;;;5027980;28;20222;-83
2023/07/13 12:29:20;;;;;;;0.10;0.10;;;27.60;99.90;;;;;;5027628;28;20198;-83
2023/07/13 12:31:48;;;;;;;0.10;0.10;;;27.60;99.90;;;;;;5025825;28;20198;-82
2023/07/13 12:34:19;;;;;;;0.10;0.10;;;27.50;99.90;;;;;;5026875;28;20182;-83
2023/07/13 12:36:51;;;;;;;3.13;3.03;;;27.50;99.90;;;;;;5019455;28;20178;-83
2023/07/13 12:39:27;;;;;;;0.10;0.10;;;27.50;99.90;;;;;;5028386;28;20206;-83
2023/07/13 12:41:53;;;;;;;0.10;0.10;;;27.50;99.90;;;;;;5027700;28;20248;-83
2023/07/13 12:44:28;;;;;;;0.10;0.10;;;27.50;99.90;;;;;;5025075;28;20186;-82
2023/07/13 12:47:04;;;;;;;0.10;0.10;;;27.60;99.90;;;;;;5027021;28;20197;-82
2023/07/13 12:49:34;;;;;;;0.10;0.10;;;27.60;99.90;;;;;;5024399;28;20283;-83
2023/07/13 12:52:02;;;;;;;0.10;0.10;;;27.60;99.90;;;;;;5020001;28;20194;-83
2023/07/13 12:54:29;;;;;;;0.10;0.10;;;27.50;99.90;;;;;;5010433;28;20193;-83